Flight Track Log - Related Links

Times and Time Zones

All times are in EDT time to prevent confusion due to time zone crossing. See the N53NW flight status page for this flight to view local times or setup timezone preferences in your user account.

Time Position Orientation Groundspeed Altitude Reporting Facility
EDT Latitude Longitude Course Direction KTS MPH feet Rate Location/Type
Mon 12:24:38 PM 43.1033 -89.3486 137° Southeast 218 251 2,900  Level Chicago Center
Mon 12:25:40 PM 43.0397 -89.2675 137° Southeast 272 313 8,500 4,645 Climbing Chicago Center
Mon 12:26:42 PM 42.9889 -89.1850 130° Southeast 283 326 12,500 3,774 Climbing Chicago Center
Mon 12:27:44 PM 42.9317 -89.0989 132° Southeast 301 346 16,300 3,290 Climbing Chicago Center
Mon 12:28:46 PM 42.8650 -89.0261 141° Southeast 323 372 19,300 2,565 Climbing Chicago Center
Mon 12:29:48 PM 42.7858 -88.9586 148° Southeast 335 386 21,600 1,887 Climbing Chicago Center
Mon 12:30:50 PM 42.6797 -88.8719 149° Southeast 380 437 23,200 1,597 Climbing Chicago Center
Mon 12:31:52 PM 42.5764 -88.7850 148° Southeast 430 495 24,900 871 Climbing Chicago Center
Mon 12:32:54 PM 42.4700 -88.6975 149° Southeast 445 512 25,000 48 Climbing Chicago Center
Mon 12:33:56 PM 42.3608 -88.6081 149° Southeast 456 525 25,000  Level Chicago Center
Mon 12:34:57 PM 42.2425 -88.5114 149° Southeast 461 531 25,000  Level Chicago Center
Mon 12:35:59 PM 42.1319 -88.4211 149° Southeast 466 536 25,000  Level Chicago Center
Mon 12:37:01 PM 42.0214 -88.3333 149° Southeast 464 534 25,000  Level Chicago Center
Mon 12:38:03 PM 41.9111 -88.2431 149° Southeast 465 535 25,000  Level Chicago Center
Mon 12:39:05 PM 41.8011 -88.1533 149° Southeast 465 535 25,000  Level Chicago Center
Mon 12:40:07 PM 41.6672 -88.0467 149° Southeast 466 536 25,000  Level Chicago Center
Mon 12:41:09 PM 41.5553 -87.9578 149° Southeast 465 535 25,000  Level Chicago Center
Mon 12:42:11 PM 41.4422 -87.8658 149° Southeast 464 534 25,000  Level Chicago Center
Mon 12:43:13 PM 41.3314 -87.7742 148° Southeast 464 534 25,000  Level Chicago Center
Mon 12:44:15 PM 41.2333 -87.6675 141° Southeast 455 524 25,000  Level Chicago Center
Mon 12:45:17 PM 41.1364 -87.5628 141° Southeast 451 519 25,000  Level Chicago Center
Mon 12:46:20 PM 41.0400 -87.4583 141° Southeast 450 518 25,000 -480 Level Chicago Center
Mon 12:47:22 PM 40.9072 -87.3600 151° Southeast 460 529 24,000 -774 Descending Chicago Center
Mon 12:48:24 PM 40.7947 -87.2867 154° Southeast 454 522 23,400 -1,258 Descending Chicago Center
Mon 12:49:26 PM 40.6861 -87.2150 153° Southeast 440 506 21,400 -1,839 Descending Chicago Center
Mon 12:50:28 PM 40.5828 -87.1475 154° Southeast 420 483 19,600 -1,694 Descending Chicago Center
Mon 12:51:30 PM 40.4856 -87.0847 154° Southeast 409 471 17,900 -1,597 Descending Chicago Center
Mon 12:52:32 PM 40.3703 -87.0100 154° Southeast 389 448 16,300 -1,548 Descending Chicago Center
Mon 12:53:34 PM 40.2764 -86.9497 154° Southeast 379 436 14,700 -1,548 Descending Chicago Center
Mon 12:54:36 PM 40.1858 -86.8914 154° Southeast 366 421 13,100 -1,548 Descending Chicago Center
Mon 12:55:38 PM 40.1153 -86.8033 136° Southeast 355 409 11,500 -1,548 Descending Chicago Center
Mon 12:56:40 PM 40.0753 -86.7017 117° Southeast 327 376 9,900 -1,742 Descending Chicago Center
Mon 12:57:42 PM 40.0642 -86.5750 96° East 296 341 7,900 -1,839 Descending Chicago Center
Mon 12:58:44 PM 40.0544 -86.4731 97° East 289 333 6,100 -1,890 Descending Chicago Center
Mon 12:59:49 PM 40.0472 -86.3775 96° East 277 319 3,900 -2,031 Descending Indianapolis Center

Login

Don't have an account? Register now (free) for customized features, flight alerts, and more!